sensor_id;sensor_type;location;lat;lon;timestamp;temperature;humidity
80540;DHT22;69869;48.036;15.780;2023-07-16T00:02:06;22.40;87.00
80540;DHT22;69869;48.036;15.780;2023-07-16T00:04:32;22.40;86.40
80540;DHT22;69869;48.036;15.780;2023-07-16T00:07:01;22.50;86.70
80540;DHT22;69869;48.036;15.780;2023-07-16T00:09:27;22.50;86.60
80540;DHT22;69869;48.036;15.780;2023-07-16T00:11:53;22.50;86.90
80540;DHT22;69869;48.036;15.780;2023-07-16T00:14:19;22.40;86.90
80540;DHT22;69869;48.036;15.780;2023-07-16T00:16:44;22.50;86.40
80540;DHT22;69869;48.036;15.780;2023-07-16T00:19:11;22.50;86.70
80540;DHT22;69869;48.036;15.780;2023-07-16T00:21:37;22.50;87.00
80540;DHT22;69869;48.036;15.780;2023-07-16T00:24:04;22.50;86.40
80540;DHT22;69869;48.036;15.780;2023-07-16T00:26:30;22.50;86.90
80540;DHT22;69869;48.036;15.780;2023-07-16T00:28:56;22.50;86.70
80540;DHT22;69869;48.036;15.780;2023-07-16T00:31:21;22.50;87.30
80540;DHT22;69869;48.036;15.780;2023-07-16T00:33:47;22.40;87.30
80540;DHT22;69869;48.036;15.780;2023-07-16T00:36:13;22.40;86.40
80540;DHT22;69869;48.036;15.780;2023-07-16T00:38:39;22.50;86.80
80540;DHT22;69869;48.036;15.780;2023-07-16T00:41:06;22.50;87.10
80540;DHT22;69869;48.036;15.780;2023-07-16T00:43:32;22.50;87.00
80540;DHT22;69869;48.036;15.780;2023-07-16T00:45:58;22.50;87.30
80540;DHT22;69869;48.036;15.780;2023-07-16T00:48:24;22.50;87.00
80540;DHT22;69869;48.036;15.780;2023-07-16T00:50:52;22.50;86.90
80540;DHT22;69869;48.036;15.780;2023-07-16T00:53:19;22.50;87.10
80540;DHT22;69869;48.036;15.780;2023-07-16T00:55:45;22.50;86.80
80540;DHT22;69869;48.036;15.780;2023-07-16T00:58:11;22.50;87.40
80540;DHT22;69869;48.036;15.780;2023-07-16T01:00:38;22.50;86.70
80540;DHT22;69869;48.036;15.780;2023-07-16T01:03:07;22.50;86.90
80540;DHT22;69869;48.036;15.780;2023-07-16T01:11:03;22.50;87.00
80540;DHT22;69869;48.036;15.780;2023-07-16T01:13:30;22.50;87.10
80540;DHT22;69869;48.036;15.780;2023-07-16T01:15:56;22.50;87.50
80540;DHT22;69869;48.036;15.780;2023-07-16T01:18:21;22.50;88.00
80540;DHT22;69869;48.036;15.780;2023-07-16T01:20:47;22.50;87.70
80540;DHT22;69869;48.036;15.780;2023-07-16T01:26:08;22.50;87.60
80540;DHT22;69869;48.036;15.780;2023-07-16T01:31:28;22.50;87.70
80540;DHT22;69869;48.036;15.780;2023-07-16T01:33:54;22.50;87.50
80540;DHT22;69869;48.036;15.780;2023-07-16T01:36:23;22.50;87.50
80540;DHT22;69869;48.036;15.780;2023-07-16T01:38:49;22.50;87.90
80540;DHT22;69869;48.036;15.780;2023-07-16T01:41:15;22.50;88.10
80540;DHT22;69869;48.036;15.780;2023-07-16T01:43:40;22.50;88.20
80540;DHT22;69869;48.036;15.780;2023-07-16T01:46:06;22.50;88.20
80540;DHT22;69869;48.036;15.780;2023-07-16T01:48:38;22.50;88.10
80540;DHT22;69869;48.036;15.780;2023-07-16T01:51:04;22.50;87.90
80540;DHT22;69869;48.036;15.780;2023-07-16T01:53:30;22.50;88.40
80540;DHT22;69869;48.036;15.780;2023-07-16T01:55:57;22.50;88.00
80540;DHT22;69869;48.036;15.780;2023-07-16T01:58:22;22.50;88.00
80540;DHT22;69869;48.036;15.780;2023-07-16T02:00:50;22.50;88.50
80540;DHT22;69869;48.036;15.780;2023-07-16T02:03:15;22.50;88.20
80540;DHT22;69869;48.036;15.780;2023-07-16T02:05:41;22.50;88.70
80540;DHT22;69869;48.036;15.780;2023-07-16T02:08:07;22.50;88.50
80540;DHT22;69869;48.036;15.780;2023-07-16T02:10:32;22.50;88.60
80540;DHT22;69869;48.036;15.780;2023-07-16T02:12:58;22.50;88.70
80540;DHT22;69869;48.036;15.780;2023-07-16T02:15:24;22.50;88.70
80540;DHT22;69869;48.036;15.780;2023-07-16T02:17:50;22.50;88.70
80540;DHT22;69869;48.036;15.780;2023-07-16T02:20:16;22.50;88.60
80540;DHT22;69869;48.036;15.780;2023-07-16T02:22:41;22.50;88.40
80540;DHT22;69869;48.036;15.780;2023-07-16T02:25:07;22.50;89.00
80540;DHT22;69869;48.036;15.780;2023-07-16T02:27:33;22.50;88.90
80540;DHT22;69869;48.036;15.780;2023-07-16T02:29:58;22.50;88.70
80540;DHT22;69869;48.036;15.780;2023-07-16T02:32:24;22.50;88.70
80540;DHT22;69869;48.036;15.780;2023-07-16T02:34:50;22.50;88.80
80540;DHT22;69869;48.036;15.780;2023-07-16T02:37:15;22.50;88.80
80540;DHT22;69869;48.036;15.780;2023-07-16T02:39:44;22.50;88.50
80540;DHT22;69869;48.036;15.780;2023-07-16T02:42:10;22.50;88.90
80540;DHT22;69869;48.036;15.780;2023-07-16T02:44:36;22.50;88.70
80540;DHT22;69869;48.036;15.780;2023-07-16T02:47:12;22.50;88.60
80540;DHT22;69869;48.036;15.780;2023-07-16T02:49:38;22.50;88.70
80540;DHT22;69869;48.036;15.780;2023-07-16T02:52:05;22.50;88.90
80540;DHT22;69869;48.036;15.780;2023-07-16T02:54:31;22.50;88.60
80540;DHT22;69869;48.036;15.780;2023-07-16T02:56:58;22.50;88.90
80540;DHT22;69869;48.036;15.780;2023-07-16T02:59:23;22.50;89.00
80540;DHT22;69869;48.036;15.780;2023-07-16T03:01:50;22.50;88.80
80540;DHT22;69869;48.036;15.780;2023-07-16T03:04:16;22.50;88.90
80540;DHT22;69869;48.036;15.780;2023-07-16T03:06:41;22.50;89.10
80540;DHT22;69869;48.036;15.780;2023-07-16T03:09:07;22.50;89.00
80540;DHT22;69869;48.036;15.780;2023-07-16T03:11:33;22.50;89.00
80540;DHT22;69869;48.036;15.780;2023-07-16T03:13:58;22.50;89.00
80540;DHT22;69869;48.036;15.780;2023-07-16T03:16:24;22.50;89.10
80540;DHT22;69869;48.036;15.780;2023-07-16T03:18:50;22.50;89.10
80540;DHT22;69869;48.036;15.780;2023-07-16T03:21:15;22.50;89.20
80540;DHT22;69869;48.036;15.780;2023-07-16T03:23:41;22.50;89.20
80540;DHT22;69869;48.036;15.780;2023-07-16T03:26:06;22.50;89.10
80540;DHT22;69869;48.036;15.780;2023-07-16T03:28:32;22.50;88.90
80540;DHT22;69869;48.036;15.780;2023-07-16T03:30:59;22.50;89.10
80540;DHT22;69869;48.036;15.780;2023-07-16T03:33:24;22.50;89.00
80540;DHT22;69869;48.036;15.780;2023-07-16T03:35:51;22.50;89.10
80540;DHT22;69869;48.036;15.780;2023-07-16T03:38:17;22.50;89.10
80540;DHT22;69869;48.036;15.780;2023-07-16T03:40:47;22.50;89.20
80540;DHT22;69869;48.036;15.780;2023-07-16T03:50:59;22.50;89.00
80540;DHT22;69869;48.036;15.780;2023-07-16T03:53:24;22.50;89.00
80540;DHT22;69869;48.036;15.780;2023-07-16T03:55:50;22.50;89.10
80540;DHT22;69869;48.036;15.780;2023-07-16T03:58:16;22.50;89.10
80540;DHT22;69869;48.036;15.780;2023-07-16T04:00:41;22.50;89.10
80540;DHT22;69869;48.036;15.780;2023-07-16T04:03:08;22.50;89.10
80540;DHT22;69869;48.036;15.780;2023-07-16T04:05:33;22.50;89.00
80540;DHT22;69869;48.036;15.780;2023-07-16T04:07:59;22.50;89.00
80540;DHT22;69869;48.036;15.780;2023-07-16T04:10:25;22.50;89.10
80540;DHT22;69869;48.036;15.780;2023-07-16T04:12:50;22.50;89.00
80540;DHT22;69869;48.036;15.780;2023-07-16T04:15:16;22.50;89.00
80540;DHT22;69869;48.036;15.780;2023-07-16T04:17:42;22.50;88.80
80540;DHT22;69869;48.036;15.780;2023-07-16T04:20:08;22.50;89.10
80540;DHT22;69869;48.036;15.780;2023-07-16T04:22:34;22.50;88.90
80540;DHT22;69869;48.036;15.780;2023-07-16T04:25:01;22.50;89.00
80540;DHT22;69869;48.036;15.780;2023-07-16T04:27:26;22.50;88.60
80540;DHT22;69869;48.036;15.780;2023-07-16T04:29:52;22.50;88.30
80540;DHT22;69869;48.036;15.780;2023-07-16T04:32:18;22.50;88.90
80540;DHT22;69869;48.036;15.780;2023-07-16T04:34:44;22.50;88.40
80540;DHT22;69869;48.036;15.780;2023-07-16T04:37:10;22.50;88.70
80540;DHT22;69869;48.036;15.780;2023-07-16T04:39:35;22.50;88.70
80540;DHT22;69869;48.036;15.780;2023-07-16T04:42:01;22.50;88.30
80540;DHT22;69869;48.036;15.780;2023-07-16T04:44:27;22.50;88.90
80540;DHT22;69869;48.036;15.780;2023-07-16T04:46:52;22.50;88.80
80540;DHT22;69869;48.036;15.780;2023-07-16T04:49:18;22.50;88.90
80540;DHT22;69869;48.036;15.780;2023-07-16T04:51:43;22.50;88.80
80540;DHT22;69869;48.036;15.780;2023-07-16T04:54:09;22.50;88.30
80540;DHT22;69869;48.036;15.780;2023-07-16T04:56:35;22.50;88.60
80540;DHT22;69869;48.036;15.780;2023-07-16T04:59:01;22.50;88.60
80540;DHT22;69869;48.036;15.780;2023-07-16T05:01:26;22.50;88.60
80540;DHT22;69869;48.036;15.780;2023-07-16T05:03:52;22.50;88.30
80540;DHT22;69869;48.036;15.780;2023-07-16T05:06:18;22.50;88.30
80540;DHT22;69869;48.036;15.780;2023-07-16T05:08:43;22.50;88.70
80540;DHT22;69869;48.036;15.780;2023-07-16T05:11:09;22.50;88.50
80540;DHT22;69869;48.036;15.780;2023-07-16T05:13:35;22.50;87.40
80540;DHT22;69869;48.036;15.780;2023-07-16T05:16:00;22.50;87.80
80540;DHT22;69869;48.036;15.780;2023-07-16T05:18:26;22.50;87.20
80540;DHT22;69869;48.036;15.780;2023-07-16T05:20:52;22.50;87.60
80540;DHT22;69869;48.036;15.780;2023-07-16T05:23:17;22.50;87.40
80540;DHT22;69869;48.036;15.780;2023-07-16T05:25:49;22.50;87.80
80540;DHT22;69869;48.036;15.780;2023-07-16T05:28:16;22.50;87.80
80540;DHT22;69869;48.036;15.780;2023-07-16T05:30:42;22.50;87.80
80540;DHT22;69869;48.036;15.780;2023-07-16T05:33:07;22.50;87.40
80540;DHT22;69869;48.036;15.780;2023-07-16T05:35:33;22.50;87.70
80540;DHT22;69869;48.036;15.780;2023-07-16T05:37:58;22.50;87.30
80540;DHT22;69869;48.036;15.780;2023-07-16T05:40:24;22.60;87.30
80540;DHT22;69869;48.036;15.780;2023-07-16T05:42:50;22.50;87.70
80540;DHT22;69869;48.036;15.780;2023-07-16T05:45:15;22.50;87.00
80540;DHT22;69869;48.036;15.780;2023-07-16T05:47:41;22.50;88.00
80540;DHT22;69869;48.036;15.780;2023-07-16T05:50:07;22.50;87.50
80540;DHT22;69869;48.036;15.780;2023-07-16T05:52:33;22.50;87.00
80540;DHT22;69869;48.036;15.780;2023-07-16T05:54:58;22.50;88.10
80540;DHT22;69869;48.036;15.780;2023-07-16T05:57:24;22.60;88.40
80540;DHT22;69869;48.036;15.780;2023-07-16T05:59:50;22.50;87.50
80540;DHT22;69869;48.036;15.780;2023-07-16T06:02:15;22.50;87.20
80540;DHT22;69869;48.036;15.780;2023-07-16T06:04:41;22.50;87.10
80540;DHT22;69869;48.036;15.780;2023-07-16T06:07:07;22.50;87.40
80540;DHT22;69869;48.036;15.780;2023-07-16T06:09:33;22.60;87.10
80540;DHT22;69869;48.036;15.780;2023-07-16T06:11:58;22.50;87.10
80540;DHT22;69869;48.036;15.780;2023-07-16T06:14:24;22.50;87.20
80540;DHT22;69869;48.036;15.780;2023-07-16T06:16:50;22.50;87.20
80540;DHT22;69869;48.036;15.780;2023-07-16T06:19:15;22.60;87.30
80540;DHT22;69869;48.036;15.780;2023-07-16T06:21:41;22.50;87.10
80540;DHT22;69869;48.036;15.780;2023-07-16T06:24:07;22.50;86.70
80540;DHT22;69869;48.036;15.780;2023-07-16T06:26:32;22.50;86.70
80540;DHT22;69869;48.036;15.780;2023-07-16T06:28:58;22.50;87.30
80540;DHT22;69869;48.036;15.780;2023-07-16T06:31:24;22.60;86.50
80540;DHT22;69869;48.036;15.780;2023-07-16T06:33:49;22.50;86.50
80540;DHT22;69869;48.036;15.780;2023-07-16T06:36:16;22.60;86.50
80540;DHT22;69869;48.036;15.780;2023-07-16T06:38:42;22.60;86.80
80540;DHT22;69869;48.036;15.780;2023-07-16T06:41:07;22.50;86.50
80540;DHT22;69869;48.036;15.780;2023-07-16T06:43:33;22.50;86.40
80540;DHT22;69869;48.036;15.780;2023-07-16T06:45:58;22.50;86.10
80540;DHT22;69869;48.036;15.780;2023-07-16T06:48:24;22.60;86.20
80540;DHT22;69869;48.036;15.780;2023-07-16T06:50:50;22.60;86.00
80540;DHT22;69869;48.036;15.780;2023-07-16T06:53:16;22.60;86.20
80540;DHT22;69869;48.036;15.780;2023-07-16T06:55:42;22.50;86.10
80540;DHT22;69869;48.036;15.780;2023-07-16T06:58:11;22.50;86.10
80540;DHT22;69869;48.036;15.780;2023-07-16T07:00:37;22.60;86.00
80540;DHT22;69869;48.036;15.780;2023-07-16T07:03:02;22.60;86.80
80540;DHT22;69869;48.036;15.780;2023-07-16T07:05:28;22.50;86.20
80540;DHT22;69869;48.036;15.780;2023-07-16T07:07:54;22.50;86.40
80540;DHT22;69869;48.036;15.780;2023-07-16T07:10:20;22.50;86.30
80540;DHT22;69869;48.036;15.780;2023-07-16T07:12:45;22.50;86.40
80540;DHT22;69869;48.036;15.780;2023-07-16T07:15:11;22.50;86.80
80540;DHT22;69869;48.036;15.780;2023-07-16T07:17:37;22.50;86.50
80540;DHT22;69869;48.036;15.780;2023-07-16T07:20:03;22.50;86.30
80540;DHT22;69869;48.036;15.780;2023-07-16T07:22:29;22.60;86.40
80540;DHT22;69869;48.036;15.780;2023-07-16T07:24:54;22.60;86.80
80540;DHT22;69869;48.036;15.780;2023-07-16T07:27:20;22.60;87.00
80540;DHT22;69869;48.036;15.780;2023-07-16T07:29:46;22.50;86.70
80540;DHT22;69869;48.036;15.780;2023-07-16T07:32:12;22.50;86.70
80540;DHT22;69869;48.036;15.780;2023-07-16T07:34:38;22.50;86.60
80540;DHT22;69869;48.036;15.780;2023-07-16T07:37:05;22.50;86.30
80540;DHT22;69869;48.036;15.780;2023-07-16T07:39:30;22.50;86.30
80540;DHT22;69869;48.036;15.780;2023-07-16T07:41:56;22.60;86.40
80540;DHT22;69869;48.036;15.780;2023-07-16T07:44:21;22.50;86.20
80540;DHT22;69869;48.036;15.780;2023-07-16T07:46:47;22.60;86.70
80540;DHT22;69869;48.036;15.780;2023-07-16T07:49:13;22.50;86.30
80540;DHT22;69869;48.036;15.780;2023-07-16T07:51:38;22.50;86.40
80540;DHT22;69869;48.036;15.780;2023-07-16T07:54:04;22.50;86.40
80540;DHT22;69869;48.036;15.780;2023-07-16T07:56:30;22.50;86.40
80540;DHT22;69869;48.036;15.780;2023-07-16T07:58:56;22.60;86.40
80540;DHT22;69869;48.036;15.780;2023-07-16T08:01:21;22.50;86.10
80540;DHT22;69869;48.036;15.780;2023-07-16T08:03:47;22.60;86.30
80540;DHT22;69869;48.036;15.780;2023-07-16T08:06:12;22.50;86.40
80540;DHT22;69869;48.036;15.780;2023-07-16T08:08:38;22.50;86.50
80540;DHT22;69869;48.036;15.780;2023-07-16T08:11:04;22.60;86.30
80540;DHT22;69869;48.036;15.780;2023-07-16T08:13:29;22.50;86.20
80540;DHT22;69869;48.036;15.780;2023-07-16T08:15:55;22.50;86.10
80540;DHT22;69869;48.036;15.780;2023-07-16T08:18:21;22.60;86.20
80540;DHT22;69869;48.036;15.780;2023-07-16T08:20:47;22.60;86.30
80540;DHT22;69869;48.036;15.780;2023-07-16T08:23:12;22.50;86.00
80540;DHT22;69869;48.036;15.780;2023-07-16T08:25:42;22.60;86.20
80540;DHT22;69869;48.036;15.780;2023-07-16T08:28:08;22.60;86.30
80540;DHT22;69869;48.036;15.780;2023-07-16T08:30:34;22.60;86.00
80540;DHT22;69869;48.036;15.780;2023-07-16T08:32:59;22.50;85.90
80540;DHT22;69869;48.036;15.780;2023-07-16T08:35:25;22.60;86.10
80540;DHT22;69869;48.036;15.780;2023-07-16T08:37:51;22.50;85.90
80540;DHT22;69869;48.036;15.780;2023-07-16T08:40:16;22.60;86.40
80540;DHT22;69869;48.036;15.780;2023-07-16T08:42:44;22.50;85.60
80540;DHT22;69869;48.036;15.780;2023-07-16T08:45:11;22.50;86.30
80540;DHT22;69869;48.036;15.780;2023-07-16T08:47:37;22.50;86.30
80540;DHT22;69869;48.036;15.780;2023-07-16T08:50:03;22.50;85.80
80540;DHT22;69869;48.036;15.780;2023-07-16T08:52:29;22.60;86.10
80540;DHT22;69869;48.036;15.780;2023-07-16T08:54:55;22.60;86.00
80540;DHT22;69869;48.036;15.780;2023-07-16T08:57:22;22.60;86.20
80540;DHT22;69869;48.036;15.780;2023-07-16T08:59:48;22.60;86.10
80540;DHT22;69869;48.036;15.780;2023-07-16T09:02:17;22.50;86.60
80540;DHT22;69869;48.036;15.780;2023-07-16T09:04:43;22.50;86.00
80540;DHT22;69869;48.036;15.780;2023-07-16T09:07:09;22.50;86.00
80540;DHT22;69869;48.036;15.780;2023-07-16T09:09:34;22.50;86.10
80540;DHT22;69869;48.036;15.780;2023-07-16T09:12:01;22.50;85.60
80540;DHT22;69869;48.036;15.780;2023-07-16T09:14:27;22.60;85.90
80540;DHT22;69869;48.036;15.780;2023-07-16T09:16:53;22.60;85.50
80540;DHT22;69869;48.036;15.780;2023-07-16T09:19:20;22.60;85.70
80540;DHT22;69869;48.036;15.780;2023-07-16T09:21:50;22.60;85.70
80540;DHT22;69869;48.036;15.780;2023-07-16T09:24:17;22.60;86.40
80540;DHT22;69869;48.036;15.780;2023-07-16T09:26:53;22.60;85.90
80540;DHT22;69869;48.036;15.780;2023-07-16T09:29:20;22.60;85.90
80540;DHT22;69869;48.036;15.780;2023-07-16T09:31:57;22.60;85.80
80540;DHT22;69869;48.036;15.780;2023-07-16T09:34:23;22.60;85.80
80540;DHT22;69869;48.036;15.780;2023-07-16T09:36:49;22.60;85.80
80540;DHT22;69869;48.036;15.780;2023-07-16T09:39:18;22.60;86.20
80540;DHT22;69869;48.036;15.780;2023-07-16T09:41:48;22.60;85.90
80540;DHT22;69869;48.036;15.780;2023-07-16T09:44:14;22.60;86.30
80540;DHT22;69869;48.036;15.780;2023-07-16T09:46:41;22.60;86.00
80540;DHT22;69869;48.036;15.780;2023-07-16T09:49:07;22.60;86.20
80540;DHT22;69869;48.036;15.780;2023-07-16T09:51:37;22.60;86.30
80540;DHT22;69869;48.036;15.780;2023-07-16T09:54:04;22.60;86.10
80540;DHT22;69869;48.036;15.780;2023-07-16T09:56:39;22.60;86.30
80540;DHT22;69869;48.036;15.780;2023-07-16T09:59:08;22.60;86.00
80540;DHT22;69869;48.036;15.780;2023-07-16T10:01:36;22.60;86.00
80540;DHT22;69869;48.036;15.780;2023-07-16T10:04:37;22.60;85.70
80540;DHT22;69869;48.036;15.780;2023-07-16T10:07:04;22.60;85.70
80540;DHT22;69869;48.036;15.780;2023-07-16T10:12:15;22.60;85.40
80540;DHT22;69869;48.036;15.780;2023-07-16T10:14:52;22.60;85.50
80540;DHT22;69869;48.036;15.780;2023-07-16T10:17:18;22.70;85.70
80540;DHT22;69869;48.036;15.780;2023-07-16T10:20:08;22.70;85.50
80540;DHT22;69869;48.036;15.780;2023-07-16T10:22:40;22.70;85.90
80540;DHT22;69869;48.036;15.780;2023-07-16T10:27:49;22.70;85.60
80540;DHT22;69869;48.036;15.780;2023-07-16T10:30:15;22.60;85.50
80540;DHT22;69869;48.036;15.780;2023-07-16T10:32:41;22.60;85.60
80540;DHT22;69869;48.036;15.780;2023-07-16T10:35:09;22.70;86.10
80540;DHT22;69869;48.036;15.780;2023-07-16T10:37:35;22.60;86.00
80540;DHT22;69869;48.036;15.780;2023-07-16T10:40:01;22.70;86.20
80540;DHT22;69869;48.036;15.780;2023-07-16T10:42:31;22.60;85.70
80540;DHT22;69869;48.036;15.780;2023-07-16T10:45:07;22.70;85.50
80540;DHT22;69869;48.036;15.780;2023-07-16T10:47:37;22.70;86.10
80540;DHT22;69869;48.036;15.780;2023-07-16T10:50:05;22.70;85.70
80540;DHT22;69869;48.036;15.780;2023-07-16T10:52:31;22.70;86.00
80540;DHT22;69869;48.036;15.780;2023-07-16T10:54:57;22.70;85.80
80540;DHT22;69869;48.036;15.780;2023-07-16T10:57:26;22.70;85.90
80540;DHT22;69869;48.036;15.780;2023-07-16T10:59:53;22.70;85.50
80540;DHT22;69869;48.036;15.780;2023-07-16T11:02:21;22.70;85.30
80540;DHT22;69869;48.036;15.780;2023-07-16T11:04:47;22.70;85.10
80540;DHT22;69869;48.036;15.780;2023-07-16T11:07:14;22.70;85.20
80540;DHT22;69869;48.036;15.780;2023-07-16T11:09:54;22.70;85.20
80540;DHT22;69869;48.036;15.780;2023-07-16T11:12:23;22.70;85.60
80540;DHT22;69869;48.036;15.780;2023-07-16T11:14:53;22.80;85.50
80540;DHT22;69869;48.036;15.780;2023-07-16T11:17:20;22.70;85.20
80540;DHT22;69869;48.036;15.780;2023-07-16T11:19:49;22.80;85.50
80540;DHT22;69869;48.036;15.780;2023-07-16T11:22:15;22.70;85.10
80540;DHT22;69869;48.036;15.780;2023-07-16T11:24:42;22.80;85.20
80540;DHT22;69869;48.036;15.780;2023-07-16T11:27:15;22.80;84.60
80540;DHT22;69869;48.036;15.780;2023-07-16T11:29:52;22.80;85.20
80540;DHT22;69869;48.036;15.780;2023-07-16T11:32:31;22.80;85.40
80540;DHT22;69869;48.036;15.780;2023-07-16T11:34:59;22.80;84.60
80540;DHT22;69869;48.036;15.780;2023-07-16T11:37:25;22.80;84.80
80540;DHT22;69869;48.036;15.780;2023-07-16T11:39:58;22.80;85.30
80540;DHT22;69869;48.036;15.780;2023-07-16T11:42:31;22.80;85.20
80540;DHT22;69869;48.036;15.780;2023-07-16T11:44:58;22.80;85.20
80540;DHT22;69869;48.036;15.780;2023-07-16T11:47:24;22.80;85.50
80540;DHT22;69869;48.036;15.780;2023-07-16T11:49:50;22.80;84.00
80540;DHT22;69869;48.036;15.780;2023-07-16T11:52:26;22.90;84.60
80540;DHT22;69869;48.036;15.780;2023-07-16T11:54:53;22.90;84.80
80540;DHT22;69869;48.036;15.780;2023-07-16T11:57:19;22.90;85.30
80540;DHT22;69869;48.036;15.780;2023-07-16T11:59:44;22.80;84.80
80540;DHT22;69869;48.036;15.780;2023-07-16T12:02:10;22.80;85.60
80540;DHT22;69869;48.036;15.780;2023-07-16T12:07:04;22.80;84.90
80540;DHT22;69869;48.036;15.780;2023-07-16T12:09:30;22.80;85.50
80540;DHT22;69869;48.036;15.780;2023-07-16T12:11:56;22.80;85.90
80540;DHT22;69869;48.036;15.780;2023-07-16T12:14:22;22.80;85.30
80540;DHT22;69869;48.036;15.780;2023-07-16T12:16:48;22.80;85.20
80540;DHT22;69869;48.036;15.780;2023-07-16T12:19:13;22.80;85.60
80540;DHT22;69869;48.036;15.780;2023-07-16T12:21:39;22.80;85.10
80540;DHT22;69869;48.036;15.780;2023-07-16T12:24:05;22.80;85.60
80540;DHT22;69869;48.036;15.780;2023-07-16T12:26:31;22.80;85.90
80540;DHT22;69869;48.036;15.780;2023-07-16T12:28:56;22.80;85.90
80540;DHT22;69869;48.036;15.780;2023-07-16T12:31:22;22.70;86.00
80540;DHT22;69869;48.036;15.780;2023-07-16T12:33:48;22.70;86.20
80540;DHT22;69869;48.036;15.780;2023-07-16T12:36:15;22.80;86.00
80540;DHT22;69869;48.036;15.780;2023-07-16T12:38:41;22.80;85.90
80540;DHT22;69869;48.036;15.780;2023-07-16T12:41:07;22.80;85.50
80540;DHT22;69869;48.036;15.780;2023-07-16T12:43:33;22.80;85.00
80540;DHT22;69869;48.036;15.780;2023-07-16T12:46:01;22.80;84.50
80540;DHT22;69869;48.036;15.780;2023-07-16T12:48:28;22.80;84.30
80540;DHT22;69869;48.036;15.780;2023-07-16T12:50:54;22.90;84.70
80540;DHT22;69869;48.036;15.780;2023-07-16T12:53:20;22.80;85.00
80540;DHT22;69869;48.036;15.780;2023-07-16T12:55:46;22.80;86.20
80540;DHT22;69869;48.036;15.780;2023-07-16T12:58:11;22.80;86.00
80540;DHT22;69869;48.036;15.780;2023-07-16T13:00:37;22.80;86.00
80540;DHT22;69869;48.036;15.780;2023-07-16T13:03:02;22.80;85.30
80540;DHT22;69869;48.036;15.780;2023-07-16T13:05:29;22.80;84.50
80540;DHT22;69869;48.036;15.780;2023-07-16T13:07:55;22.80;84.30
80540;DHT22;69869;48.036;15.780;2023-07-16T13:10:21;22.80;83.70
80540;DHT22;69869;48.036;15.780;2023-07-16T13:12:46;22.80;84.10
80540;DHT22;69869;48.036;15.780;2023-07-16T13:15:12;22.80;84.80
80540;DHT22;69869;48.036;15.780;2023-07-16T13:17:38;22.80;84.20
80540;DHT22;69869;48.036;15.780;2023-07-16T13:20:04;22.80;84.10
80540;DHT22;69869;48.036;15.780;2023-07-16T13:22:30;22.90;84.20
80540;DHT22;69869;48.036;15.780;2023-07-16T13:24:56;22.90;84.20
80540;DHT22;69869;48.036;15.780;2023-07-16T13:27:22;22.80;84.10
80540;DHT22;69869;48.036;15.780;2023-07-16T13:29:48;22.90;83.60
80540;DHT22;69869;48.036;15.780;2023-07-16T13:32:14;22.80;83.50
80540;DHT22;69869;48.036;15.780;2023-07-16T13:34:39;22.80;85.40
80540;DHT22;69869;48.036;15.780;2023-07-16T13:37:05;22.80;85.60
80540;DHT22;69869;48.036;15.780;2023-07-16T13:39:31;22.80;84.90
80540;DHT22;69869;48.036;15.780;2023-07-16T13:41:57;22.80;83.80
80540;DHT22;69869;48.036;15.780;2023-07-16T13:44:22;22.80;83.80
80540;DHT22;69869;48.036;15.780;2023-07-16T13:46:48;22.80;83.70
80540;DHT22;69869;48.036;15.780;2023-07-16T13:49:14;22.80;83.30
80540;DHT22;69869;48.036;15.780;2023-07-16T13:51:39;22.80;84.40
80540;DHT22;69869;48.036;15.780;2023-07-16T13:54:05;22.80;84.10
80540;DHT22;69869;48.036;15.780;2023-07-16T13:56:31;22.80;84.70
80540;DHT22;69869;48.036;15.780;2023-07-16T13:58:57;22.80;84.90
80540;DHT22;69869;48.036;15.780;2023-07-16T14:01:23;22.80;85.50
80540;DHT22;69869;48.036;15.780;2023-07-16T14:03:49;22.80;85.90
80540;DHT22;69869;48.036;15.780;2023-07-16T14:06:14;22.80;86.10
80540;DHT22;69869;48.036;15.780;2023-07-16T14:08:40;22.80;86.20
80540;DHT22;69869;48.036;15.780;2023-07-16T14:11:06;22.70;86.40
80540;DHT22;69869;48.036;15.780;2023-07-16T14:13:31;22.70;85.40
80540;DHT22;69869;48.036;15.780;2023-07-16T14:15:57;22.80;85.90
80540;DHT22;69869;48.036;15.780;2023-07-16T14:18:23;22.80;84.00
80540;DHT22;69869;48.036;15.780;2023-07-16T14:20:49;22.80;84.80
80540;DHT22;69869;48.036;15.780;2023-07-16T14:23:15;22.80;85.30
80540;DHT22;69869;48.036;15.780;2023-07-16T14:25:40;22.90;84.50
80540;DHT22;69869;48.036;15.780;2023-07-16T14:28:06;22.90;83.60
80540;DHT22;69869;48.036;15.780;2023-07-16T14:30:32;23.00;84.80
80540;DHT22;69869;48.036;15.780;2023-07-16T14:32:58;23.00;85.10
80540;DHT22;69869;48.036;15.780;2023-07-16T14:35:25;23.00;84.40
80540;DHT22;69869;48.036;15.780;2023-07-16T14:37:50;23.10;84.00
80540;DHT22;69869;48.036;15.780;2023-07-16T14:40:16;23.10;84.20
80540;DHT22;69869;48.036;15.780;2023-07-16T14:42:43;23.20;83.90
80540;DHT22;69869;48.036;15.780;2023-07-16T14:45:09;23.20;82.80
80540;DHT22;69869;48.036;15.780;2023-07-16T14:47:35;23.30;82.50
80540;DHT22;69869;48.036;15.780;2023-07-16T14:50:00;23.30;83.60
80540;DHT22;69869;48.036;15.780;2023-07-16T14:52:26;23.30;83.80
80540;DHT22;69869;48.036;15.780;2023-07-16T14:54:52;23.40;82.10
80540;DHT22;69869;48.036;15.780;2023-07-16T14:57:17;23.40;81.80
80540;DHT22;69869;48.036;15.780;2023-07-16T14:59:43;23.40;81.60
80540;DHT22;69869;48.036;15.780;2023-07-16T15:02:09;23.50;82.10
80540;DHT22;69869;48.036;15.780;2023-07-16T15:04:34;23.50;82.50
80540;DHT22;69869;48.036;15.780;2023-07-16T15:07:00;23.50;83.10
80540;DHT22;69869;48.036;15.780;2023-07-16T15:09:26;23.50;81.10
80540;DHT22;69869;48.036;15.780;2023-07-16T15:11:52;23.50;82.70
80540;DHT22;69869;48.036;15.780;2023-07-16T15:14:18;23.50;82.90
80540;DHT22;69869;48.036;15.780;2023-07-16T15:16:44;23.40;83.20
80540;DHT22;69869;48.036;15.780;2023-07-16T15:19:09;23.40;83.70
80540;DHT22;69869;48.036;15.780;2023-07-16T15:21:37;23.30;84.00
80540;DHT22;69869;48.036;15.780;2023-07-16T15:24:07;23.30;84.00
80540;DHT22;69869;48.036;15.780;2023-07-16T15:26:32;23.20;83.60
80540;DHT22;69869;48.036;15.780;2023-07-16T15:28:58;23.20;84.50
80540;DHT22;69869;48.036;15.780;2023-07-16T15:31:24;23.10;85.10
80540;DHT22;69869;48.036;15.780;2023-07-16T15:33:56;23.10;85.00
80540;DHT22;69869;48.036;15.780;2023-07-16T15:36:23;23.20;83.00
80540;DHT22;69869;48.036;15.780;2023-07-16T15:38:48;23.20;84.50